Rushville, Nebraska
Current Conditions -  °F | °C
As of 10:52 AM on Friday 21 Nov 2014 (Local Time) from KIEN Reporting Station
Clear Clear  
Wind Chill: 44°   Ceiling: Unl
Heat Index: 47°   Visibility: 10mi
Dew Point: 27°   Wind: 7mph
Humidity: 46%   Direction: 220°SW
Pressure: 29.87"   Gusts: NA
Location:  42.72°N, 102.46°W
Report Text: KIEN 211752Z AUTO 22006KT 10SM CLR 08/M03 A2987 RMK AO2 SLP127 T00831028 10083 21028 58003
Loading
Personal Weather Stations






























Interactive Weather Map New forecast layout! Learn more

10-Day Weather Forecast

Advertisements
Track Severe Weather on mobile